Time;durP1;ratioP1;P1;durP2;ratioP2;P2;SDS_P1;SDS_P2;PMS_P1;PMS_P2;Temp;Humidity;BMP_temperature;BMP_pressure;BME280_temperature;BME280_humidity;BME280_pressure;Samples;Min_cycle;Max_cycle;Signal;HPM_P1;HPM_P2
2022/10/25 00:01:16;;;;;;;4.60;1.58;;;;;;;15.75;100.00;98591.72;4952810;28;20446;-61
2022/10/25 00:03:42;;;;;;;4.45;1.60;;;;;;;15.76;100.00;98581.06;4961549;28;20125;-61
2022/10/25 00:06:09;;;;;;;4.53;1.38;;;;;;;15.90;100.00;98579.47;4979152;28;20289;-60
2022/10/25 00:08:35;;;;;;;4.45;1.48;;;;;;;15.86;100.00;98561.63;4976958;28;20548;-60
2022/10/25 00:11:00;;;;;;;4.43;1.52;;;;;;;15.84;100.00;98572.28;4976931;28;20034;-62
2022/10/25 00:13:26;;;;;;;4.70;1.35;;;;;;;15.85;100.00;98575.75;4956079;28;20038;-59
2022/10/25 00:15:51;;;;;;;4.65;1.40;;;;;;;15.79;100.00;98572.03;4972515;28;20040;-60
2022/10/25 00:18:17;;;;;;;4.38;1.55;;;;;;;15.75;100.00;98563.72;4975792;28;20029;-60
2022/10/25 00:20:42;;;;;;;5.18;1.63;;;;;;;15.73;100.00;98570.91;4958358;28;20058;-63
2022/10/25 00:23:07;;;;;;;4.40;1.65;;;;;;;15.68;100.00;98567.19;4959973;28;20037;-62
2022/10/25 00:25:33;;;;;;;6.93;1.90;;;;;;;15.62;100.00;98578.38;4960882;28;20478;-61
2022/10/25 00:27:58;;;;;;;4.18;1.73;;;;;;;15.28;100.00;98554.28;4958401;28;20066;-60
2022/10/25 00:30:24;;;;;;;5.43;2.40;;;;;;;15.58;100.00;98583.97;4976690;28;20436;-59
2022/10/25 00:32:51;;;;;;;5.07;2.15;;;;;;;15.62;100.00;98592.28;4957015;28;20034;-60
2022/10/25 00:35:17;;;;;;;5.28;2.00;;;;;;;15.64;100.00;98597.38;4974881;28;20030;-59
2022/10/25 00:37:43;;;;;;;6.07;2.20;;;;;;;15.63;100.00;98599.19;4976523;28;20029;-62
2022/10/25 00:40:09;;;;;;;4.78;2.00;;;;;;;15.57;100.00;98587.59;4956713;28;20432;-60
2022/10/25 00:42:34;;;;;;;5.05;2.22;;;;;;;15.57;100.00;98581.56;4959599;28;20776;-60
2022/10/25 00:45:01;;;;;;;7.85;2.45;;;;;;;15.60;100.00;98588.22;4969700;28;20072;-63
2022/10/25 00:47:35;;;;;;;5.93;2.50;;;;;;;15.65;100.00;98585.91;4961881;28;20058;-60
2022/10/25 00:50:26;;;;;;;6.50;2.70;;;;;;;15.17;100.00;98547.66;4975324;28;20397;-59
2022/10/25 00:52:53;;;;;;;4.75;1.75;;;;;;;15.33;100.00;98583.38;4975087;28;20133;-60
2022/10/25 00:55:20;;;;;;;6.00;2.17;;;;;;;15.30;100.00;98572.44;4960370;28;20111;-59
2022/10/25 00:57:50;;;;;;;5.55;2.05;;;;;;;15.29;100.00;98573.41;4976359;28;20485;-61
2022/10/25 01:00:16;;;;;;;3.58;1.60;;;;;;;15.15;100.00;98543.56;4957667;28;20039;-61
2022/10/25 01:02:41;;;;;;;5.03;1.85;;;;;;;15.37;100.00;98576.78;4970786;28;20023;-60
2022/10/25 01:05:07;;;;;;;6.35;1.50;;;;;;;15.14;100.00;98537.50;4970328;28;20482;-60
2022/10/25 01:07:33;;;;;;;6.35;1.20;;;;;;;15.50;100.00;98568.34;4965830;28;20588;-60
2022/10/25 01:09:58;;;;;;;4.07;1.60;;;;;;;15.52;100.00;98571.59;4959765;28;20045;-62
2022/10/25 01:12:24;;;;;;;3.30;0.95;;;;;;;15.54;100.00;98574.84;4956584;28;20023;-60
2022/10/25 01:14:50;;;;;;;4.50;1.40;;;;;;;15.54;100.00;98581.91;4971110;28;20041;-60
2022/10/25 01:17:31;;;;;;;3.65;1.15;;;;;;;15.47;100.00;98587.03;4975578;28;20497;-61
2022/10/25 01:20:13;;;;;;;5.43;1.48;;;;;;;15.28;100.00;98563.94;4976065;28;20070;-61
2022/10/25 01:23:18;;;;;;;4.72;1.55;;;;;;;15.30;100.00;98581.09;4970353;28;20158;-61
2022/10/25 01:25:51;;;;;;;4.47;1.30;;;;;;;15.35;100.00;98586.63;4971182;28;20061;-60
2022/10/25 01:28:45;;;;;;;3.78;1.38;;;;;;;15.34;100.00;98585.00;4978689;28;20030;-61
2022/10/25 01:31:11;;;;;;;3.67;1.38;;;;;;;15.43;100.00;98584.94;4978647;28;20104;-60
2022/10/25 01:34:04;;;;;;;4.65;1.58;;;;;;;15.39;100.00;98584.47;4977819;28;20023;-61
2022/10/25 01:36:34;;;;;;;4.07;1.50;;;;;;;15.47;100.00;98568.69;4960258;28;20165;-61
2022/10/25 01:39:05;;;;;;;3.85;1.30;;;;;;;15.40;100.00;98575.63;4974641;28;20061;-60
2022/10/25 01:41:53;;;;;;;5.90;1.92;;;;;;;15.38;100.00;98567.13;4971533;28;20488;-61
2022/10/25 01:44:42;;;;;;;5.18;1.85;;;;;;;15.43;100.00;98577.91;4970635;28;20175;-58
2022/10/25 01:47:16;;;;;;;4.93;1.20;;;;;;;15.40;100.00;98577.44;4977040;28;20033;-62
2022/10/25 01:49:57;;;;;;;4.53;1.40;;;;;;;15.36;100.00;98576.97;4976085;28;20041;-62
2022/10/25 01:52:23;;;;;;;4.10;1.20;;;;;;;15.42;100.00;98568.38;4989651;28;20038;-60
2022/10/25 01:54:49;;;;;;;3.58;1.42;;;;;;;15.38;100.00;98556.66;4974168;28;20026;-60
2022/10/25 01:57:36;;;;;;;3.38;1.38;;;;;;;15.41;100.00;98564.16;4973552;28;20038;-60
2022/10/25 02:00:08;;;;;;;4.40;1.50;;;;;;;15.26;100.00;98568.53;4964624;28;20034;-60
2022/10/25 02:03:07;;;;;;;5.15;1.88;;;;;;;15.24;100.00;98560.88;4984615;28;20038;-60
2022/10/25 02:05:45;;;;;;;6.32;1.75;;;;;;;15.33;100.00;98558.97;4968817;28;20503;-62
2022/10/25 02:08:16;;;;;;;4.95;1.80;;;;;;;15.32;100.00;98559.97;4972467;28;20566;-60
2022/10/25 02:10:57;;;;;;;5.78;1.90;;;;;;;15.27;100.00;98570.16;4968932;28;20124;-61
2022/10/25 02:13:45;;;;;;;4.68;2.00;;;;;;;15.30;100.00;98564.59;4972301;28;20109;-60
2022/10/25 02:16:14;;;;;;;7.50;1.95;;;;;;;15.30;100.00;98556.72;4968853;28;20047;-60
2022/10/25 02:18:44;;;;;;;5.18;1.73;;;;;;;15.33;100.00;98565.03;4974239;28;20688;-61
2022/10/25 02:21:11;;;;;;;4.35;1.52;;;;;;;15.12;100.00;98526.41;4959896;28;20046;-62
2022/10/25 02:23:36;;;;;;;6.45;1.95;;;;;;;15.21;100.00;98540.25;4973855;28;20153;-60
2022/10/25 02:26:06;;;;;;;4.82;1.83;;;;;;;14.97;100.00;98523.75;4969459;28;20042;-60
2022/10/25 02:28:33;;;;;;;6.05;1.80;;;;;;;15.27;100.00;98567.53;4964184;28;20029;-60
2022/10/25 02:30:59;;;;;;;7.45;2.25;;;;;;;15.08;100.00;98538.22;4990693;28;20481;-61
2022/10/25 02:33:24;;;;;;;4.60;1.85;;;;;;;15.27;100.00;98567.53;4974917;28;20041;-60
2022/10/25 02:36:18;;;;;;;6.75;1.92;;;;;;;15.21;100.00;98565.63;4970891;28;20109;-61
2022/10/25 02:38:44;;;;;;;5.93;1.70;;;;;;;15.09;100.00;98541.66;4974649;28;20437;-62
2022/10/25 02:41:10;;;;;;;3.53;1.30;;;;;;;15.40;100.00;98567.75;4972823;28;20042;-59
2022/10/25 02:43:35;;;;;;;5.20;1.50;;;;;;;15.37;100.00;98565.50;4971880;28;20141;-62
2022/10/25 02:46:08;;;;;;;4.40;1.42;;;;;;;15.33;100.00;98562.44;4980353;28;20038;-60
2022/10/25 02:48:34;;;;;;;5.00;1.63;;;;;;;15.32;100.00;98571.25;4955159;28;20159;-59
2022/10/25 02:50:59;;;;;;;4.00;1.58;;;;;;;15.28;100.00;98562.13;4978057;28;20101;-60
2022/10/25 02:53:24;;;;;;;4.47;1.30;;;;;;;15.20;100.00;98562.19;4958599;28;20140;-60
2022/10/25 02:56:22;;;;;;;4.72;1.63;;;;;;;15.19;100.00;98573.66;4962680;28;20041;-60
2022/10/25 02:58:49;;;;;;;4.53;1.90;;;;;;;15.18;100.00;98564.97;4938535;28;20410;-60
2022/10/25 03:01:16;;;;;;;5.28;1.80;;;;;;;14.86;100.00;98533.78;4972890;28;20034;-60
2022/10/25 03:03:43;;;;;;;6.10;1.60;;;;;;;15.10;100.00;98562.44;4981468;28;20026;-60
2022/10/25 03:06:09;;;;;;;5.82;1.77;;;;;;;15.16;100.00;98579.25;4994884;28;20100;-60
2022/10/25 03:08:35;;;;;;;3.85;1.50;;;;;;;15.16;100.00;98582.66;4968922;28;20035;-60
2022/10/25 03:11:01;;;;;;;4.53;1.80;;;;;;;15.09;100.00;98567.84;4976292;28;20049;-60
2022/10/25 03:13:26;;;;;;;6.47;1.80;;;;;;;15.13;100.00;98579.59;4974819;28;20038;-60
2022/10/25 03:15:52;;;;;;;4.47;1.75;;;;;;;15.10;100.00;98580.75;4974835;28;20105;-60
2022/10/25 03:18:17;;;;;;;5.93;1.52;;;;;;;15.09;100.00;98568.63;4976162;28;20108;-60
2022/10/25 03:20:43;;;;;;;5.28;1.67;;;;;;;15.06;100.00;98566.41;4972997;28;20031;-60
2022/10/25 03:23:09;;;;;;;5.43;2.03;;;;;;;15.01;100.00;98568.72;4958527;28;20046;-59
2022/10/25 03:25:35;;;;;;;3.58;1.40;;;;;;;14.96;100.00;98573.66;4977721;28;20034;-60
2022/10/25 03:28:00;;;;;;;3.97;1.70;;;;;;;14.96;100.00;98565.78;4962591;28;20397;-60
2022/10/25 03:30:26;;;;;;;5.63;1.50;;;;;;;15.01;100.00;98570.53;4979333;28;20046;-61
2022/10/25 03:32:52;;;;;;;6.78;1.73;;;;;;;15.01;100.00;98567.91;4970598;28;20034;-59
2022/10/25 03:35:17;;;;;;;6.10;2.13;;;;;;;15.03;100.00;98563.31;4976090;28;20121;-59
2022/10/25 03:37:43;;;;;;;4.40;1.70;;;;;;;14.93;100.00;98563.50;4970469;28;20429;-60
2022/10/25 03:40:09;;;;;;;4.22;1.42;;;;;;;14.93;100.00;98568.75;4969767;28;20053;-59
2022/10/25 03:42:34;;;;;;;4.63;1.65;;;;;;;14.82;100.00;98541.16;4973309;28;20470;-60
2022/10/25 03:45:00;;;;;;;5.28;1.58;;;;;;;14.87;100.00;98567.66;4971821;28;20100;-59
2022/10/25 03:47:25;;;;;;;6.18;1.70;;;;;;;14.94;100.00;98579.06;4976728;28;20038;-59
2022/10/25 03:49:50;;;;;;;4.70;1.55;;;;;;;14.86;100.00;98576.50;4985530;28;20041;-60
2022/10/25 03:52:16;;;;;;;5.45;1.70;;;;;;;14.82;100.00;98572.56;4963096;28;20520;-59
2022/10/25 03:54:42;;;;;;;4.88;1.70;;;;;;;14.88;100.00;98582.38;4970266;28;20130;-58
2022/10/25 03:57:07;;;;;;;5.28;1.80;;;;;;;14.91;100.00;98582.03;4989272;28;20035;-60
2022/10/25 03:59:33;;;;;;;5.47;1.95;;;;;;;14.78;100.00;98585.22;4973140;28;20448;-58
2022/10/25 04:01:59;;;;;;;6.15;1.80;;;;;;;14.75;100.00;98584.75;4994579;28;20323;-59
2022/10/25 04:04:25;;;;;;;4.72;1.63;;;;;;;14.83;100.00;98591.75;4973524;28;20022;-59
2022/10/25 04:06:50;;;;;;;5.85;1.77;;;;;;;14.83;100.00;98595.16;4976741;28;20116;-59
2022/10/25 04:09:16;;;;;;;4.25;1.67;;;;;;;14.87;100.00;98593.00;4977989;28;20027;-60
2022/10/25 04:11:41;;;;;;;5.22;1.83;;;;;;;14.55;100.00;98555.56;4980725;28;20030;-60
2022/10/25 04:14:06;;;;;;;6.40;1.80;;;;;;;14.84;100.00;98598.59;4978145;28;20026;-59
2022/10/25 04:16:32;;;;;;;4.88;1.42;;;;;;;14.64;100.00;98567.63;4970366;28;20149;-59
2022/10/25 04:18:58;;;;;;;6.28;1.33;;;;;;;14.91;100.00;98612.63;4970314;28;20102;-59
2022/10/25 04:21:23;;;;;;;3.60;1.30;;;;;;;14.86;100.00;98609.69;4953890;28;20158;-59
2022/10/25 04:23:49;;;;;;;5.40;1.73;;;;;;;14.92;100.00;98614.25;4971173;28;20027;-59
2022/10/25 04:26:19;;;;;;;5.47;1.50;;;;;;;14.92;100.00;98604.59;4969653;28;20097;-59
2022/10/25 04:28:52;;;;;;;4.00;1.40;;;;;;;14.86;100.00;98604.47;4964278;28;20058;-60
2022/10/25 04:31:18;;;;;;;5.20;1.40;;;;;;;14.79;100.00;98613.00;4971600;28;20163;-59
2022/10/25 04:33:47;;;;;;;5.07;1.63;;;;;;;14.82;100.00;98603.19;4979503;28;20122;-60
2022/10/25 04:36:13;;;;;;;4.97;1.42;;;;;;;14.69;100.00;98573.16;4970850;28;20292;-59
2022/10/25 04:38:38;;;;;;;4.22;1.48;;;;;;;14.85;100.00;98619.34;4972817;28;20523;-59
2022/10/25 04:41:04;;;;;;;3.72;1.40;;;;;;;14.82;100.00;98611.03;4977057;28;20060;-59
2022/10/25 04:43:29;;;;;;;5.72;1.70;;;;;;;14.79;100.00;98606.97;4972499;28;20031;-60
2022/10/25 04:45:58;;;;;;;5.65;1.67;;;;;;;14.79;100.00;98614.81;4994069;28;20080;-58
2022/10/25 04:48:24;;;;;;;4.18;1.52;;;;;;;14.70;100.00;98600.16;4977186;28;20081;-59
2022/10/25 04:50:49;;;;;;;4.78;1.55;;;;;;;14.52;100.00;98575.00;4974555;28;20476;-60
2022/10/25 04:53:15;;;;;;;5.72;1.80;;;;;;;14.72;100.00;98616.50;4961292;28;20070;-59
2022/10/25 04:55:40;;;;;;;4.45;1.50;;;;;;;14.68;100.00;98610.78;4958459;28;20572;-60
2022/10/25 04:58:06;;;;;;;4.55;1.42;;;;;;;14.70;100.00;98614.03;4952382;28;20768;-58
2022/10/25 05:00:31;;;;;;;5.90;1.63;;;;;;;14.36;100.00;98562.81;4969601;28;20066;-59
2022/10/25 05:02:56;;;;;;;6.07;1.70;;;;;;;14.68;100.00;98631.72;4992183;28;20031;-59
2022/10/25 05:05:23;;;;;;;4.15;1.20;;;;;;;14.70;100.00;98634.16;4990059;28;20030;-59
2022/10/25 05:07:48;;;;;;;4.07;1.70;;;;;;;14.62;100.00;98627.19;4957362;28;20049;-59
2022/10/25 05:10:14;;;;;;;4.53;1.60;;;;;;;14.73;100.00;98649.50;4973336;28;20027;-59
2022/10/25 05:12:39;;;;;;;4.50;1.23;;;;;;;14.67;100.00;98645.78;4972873;28;20038;-59
2022/10/25 05:15:06;;;;;;;6.63;1.67;;;;;;;14.43;100.00;98610.84;4975751;28;20658;-59
2022/10/25 05:17:31;;;;;;;4.32;1.67;;;;;;;14.62;100.00;98645.50;4972595;28;20102;-59
2022/10/25 05:19:57;;;;;;;5.10;1.70;;;;;;;14.58;100.00;98646.78;4989955;28;20091;-59
2022/10/25 05:22:22;;;;;;;7.43;2.00;;;;;;;14.54;100.00;98637.63;4977332;28;20811;-59
2022/10/25 05:24:47;;;;;;;4.13;1.65;;;;;;;14.30;100.00;98605.34;4974087;28;20041;-58
2022/10/25 05:27:13;;;;;;;5.88;1.65;;;;;;;14.35;100.00;98620.53;4976228;28;20026;-58
2022/10/25 05:29:38;;;;;;;4.40;1.70;;;;;;;14.30;100.00;98621.03;4963408;28;20031;-59
2022/10/25 05:32:04;;;;;;;6.97;1.80;;;;;;;14.52;100.00;98661.34;4968418;28;20031;-58
2022/10/25 05:34:30;;;;;;;6.53;2.17;;;;;;;14.43;100.00;98655.31;4949717;28;20072;-59
2022/10/25 05:36:56;;;;;;;5.53;1.95;;;;;;;14.47;100.00;98660.22;4966062;28;20022;-59
2022/10/25 05:39:22;;;;;;;4.32;1.90;;;;;;;14.38;100.00;98647.19;4973145;28;20034;-60
2022/10/25 05:41:48;;;;;;;5.10;2.03;;;;;;;14.46;100.00;98664.63;4949958;28;20042;-59
2022/10/25 05:44:15;;;;;;;5.60;1.88;;;;;;;14.42;100.00;98665.97;4961927;28;20022;-59
2022/10/25 05:46:41;;;;;;;6.40;2.40;;;;;;;14.46;100.00;98666.44;4969773;28;20023;-59
2022/10/25 05:49:07;;;;;;;5.50;2.03;;;;;;;14.52;100.00;98671.00;4970975;28;20049;-59
2022/10/25 05:51:32;;;;;;;7.18;2.28;;;;;;;14.47;100.00;98674.09;4975789;28;20026;-59
2022/10/25 05:54:00;;;;;;;5.38;2.35;;;;;;;14.48;100.00;98675.75;4993797;28;20592;-59
2022/10/25 05:56:27;;;;;;;6.43;2.22;;;;;;;14.43;100.00;98681.47;4973776;28;20478;-59
2022/10/25 05:58:55;;;;;;;7.13;2.28;;;;;;;14.40;100.00;98684.44;4962409;28;20026;-59
2022/10/25 06:01:21;;;;;;;9.00;1.90;;;;;;;14.40;100.00;98688.84;4964722;28;20465;-59
2022/10/25 06:03:48;;;;;;;6.35;1.98;;;;;;;14.23;100.00;98664.53;4976138;28;20057;-63
2022/10/25 06:06:13;;;;;;;6.68;2.33;;;;;;;14.28;100.00;98683.16;4977176;28;20863;-59
2022/10/25 06:08:39;;;;;;;5.72;2.03;;;;;;;14.30;100.00;98686.41;4977693;28;20118;-60
2022/10/25 06:11:10;;;;;;;4.68;2.05;;;;;;;14.42;100.00;98695.56;4976087;28;20026;-60
2022/10/25 06:13:36;;;;;;;6.93;2.28;;;;;;;14.42;100.00;98702.59;4983703;28;20473;-59
2022/10/25 06:16:09;;;;;;;7.30;2.42;;;;;;;14.40;100.00;98701.91;4993078;28;20030;-59
2022/10/25 06:18:37;;;;;;;6.60;2.30;;;;;;;14.36;100.00;98709.28;4976216;28;20117;-59
2022/10/25 06:21:11;;;;;;;8.02;2.40;;;;;;;14.42;100.00;98710.44;4978869;28;20038;-59
2022/10/25 06:23:37;;;;;;;5.22;2.00;;;;;;;14.44;100.00;98716.31;4976512;28;20025;-59
2022/10/25 06:26:06;;;;;;;8.48;2.30;;;;;;;14.43;100.00;98719.91;4964025;28;20516;-59
2022/10/25 06:28:31;;;;;;;5.17;2.20;;;;;;;14.35;100.00;98712.91;4961412;28;20444;-60
2022/10/25 06:31:08;;;;;;;5.70;2.20;;;;;;;14.36;100.00;98730.22;4962869;28;20345;-59
2022/10/25 06:33:34;;;;;;;5.88;2.20;;;;;;;14.38;100.00;98735.28;4975013;28;20057;-58
2022/10/25 06:36:00;;;;;;;5.75;2.25;;;;;;;14.35;100.00;98738.25;4972122;28;20713;-59
2022/10/25 06:38:27;;;;;;;6.22;2.28;;;;;;;14.39;100.00;98736.91;4979684;28;20558;-59
2022/10/25 06:41:00;;;;;;;5.85;2.28;;;;;;;14.36;100.00;98739.84;4981046;28;20081;-58
2022/10/25 06:43:26;;;;;;;4.97;1.80;;;;;;;14.51;100.00;98756.53;4974281;28;20584;-59
2022/10/25 06:45:51;;;;;;;6.72;2.03;;;;;;;14.54;100.00;98763.22;4984441;28;20126;-60
2022/10/25 06:48:16;;;;;;;5.85;1.75;;;;;;;14.46;100.00;98744.94;4988392;28;20048;-60
2022/10/25 06:50:42;;;;;;;6.18;2.10;;;;;;;14.46;100.00;98760.63;4977449;28;20026;-58
2022/10/25 06:53:07;;;;;;;5.15;2.17;;;;;;;14.35;100.00;98733.81;4977360;28;20057;-59
2022/10/25 06:55:33;;;;;;;5.00;2.00;;;;;;;14.52;100.00;98766.00;4949028;28;20069;-59
2022/10/25 06:57:58;;;;;;;7.20;2.00;;;;;;;14.57;100.00;98760.28;4958967;28;20426;-59
2022/10/25 07:00:23;;;;;;;4.80;2.00;;;;;;;14.62;100.00;98768.47;4972356;28;20069;-59
2022/10/25 07:02:59;;;;;;;6.70;2.13;;;;;;;14.58;100.00;98773.22;4980862;28;20031;-59
2022/10/25 07:05:25;;;;;;;7.85;2.17;;;;;;;14.62;100.00;98773.72;4969850;28;20073;-59
2022/10/25 07:07:51;;;;;;;5.60;2.13;;;;;;;14.56;100.00;98777.75;4974737;28;20046;-58
2022/10/25 07:10:17;;;;;;;5.53;2.30;;;;;;;14.28;100.00;98732.84;4973655;28;20116;-60
2022/10/25 07:12:43;;;;;;;4.72;1.98;;;;;;;14.54;100.00;98786.75;4954961;28;20835;-58
2022/10/25 07:15:08;;;;;;;5.60;1.70;;;;;;;14.47;100.00;98789.22;4975773;28;20030;-59
2022/10/25 07:17:34;;;;;;;5.50;2.17;;;;;;;14.44;100.00;98784.34;4977017;28;20394;-59
2022/10/25 07:20:00;;;;;;;6.43;2.30;;;;;;;14.49;100.00;98789.88;4980312;28;20030;-58
2022/10/25 07:22:25;;;;;;;4.90;2.20;;;;;;;14.48;100.00;98796.09;4979347;28;20030;-60
2022/10/25 07:24:50;;;;;;;5.80;2.30;;;;;;;14.41;100.00;98792.50;4971268;28;20038;-59
2022/10/25 07:27:16;;;;;;;6.57;2.15;;;;;;;14.40;100.00;98794.31;4972763;28;20037;-60
2022/10/25 07:29:41;;;;;;;7.72;2.30;;;;;;;14.37;100.00;98797.25;4962591;28;20404;-59
2022/10/25 07:32:08;;;;;;;7.80;2.38;;;;;;;14.41;100.00;98811.63;4974930;28;20393;-59
2022/10/25 07:34:34;;;;;;;5.28;2.25;;;;;;;14.07;100.00;98762.09;4969671;28;20030;-60
2022/10/25 07:36:59;;;;;;;7.03;2.47;;;;;;;14.37;100.00;98802.47;4973137;28;20031;-59
2022/10/25 07:39:25;;;;;;;6.82;2.42;;;;;;;14.32;100.00;98802.16;4971159;28;20035;-60
2022/10/25 07:41:50;;;;;;;7.63;2.75;;;;;;;14.40;100.00;98806.56;4973479;28;20030;-59
2022/10/25 07:44:16;;;;;;;6.57;2.30;;;;;;;14.40;100.00;98817.00;4973991;28;20038;-60
2022/10/25 07:46:42;;;;;;;5.20;2.30;;;;;;;14.39;100.00;98810.16;4933191;28;1140601;-59
2022/10/25 07:49:07;;;;;;;5.82;2.58;;;;;;;14.47;100.00;98820.63;4977993;28;20054;-59
2022/10/25 07:51:32;;;;;;;7.43;2.45;;;;;;;14.38;100.00;98813.75;4975971;28;21210;-59
2022/10/25 07:53:58;;;;;;;7.68;2.80;;;;;;;14.41;100.00;98813.44;4986406;28;20122;-59
2022/10/25 07:56:23;;;;;;;6.22;2.58;;;;;;;14.36;100.00;98813.09;4976494;28;20839;-60
2022/10/25 07:58:49;;;;;;;6.22;3.05;;;;;;;14.40;100.00;98822.25;4979290;28;20505;-59
2022/10/25 08:01:20;;;;;;;8.60;2.70;;;;;;;14.32;100.00;98814.41;4982441;28;20076;-62
2022/10/25 08:03:46;;;;;;;7.03;2.70;;;;;;;14.30;100.00;98811.97;4956239;28;20023;-59
2022/10/25 08:06:11;;;;;;;6.25;2.40;;;;;;;14.33;100.00;98814.25;4971320;28;20038;-60
2022/10/25 08:08:37;;;;;;;6.38;2.33;;;;;;;14.40;100.00;98811.78;4975638;28;20084;-60
2022/10/25 08:11:06;;;;;;;7.28;3.08;;;;;;;14.41;100.00;98819.47;4981789;28;20085;-59
2022/10/25 08:13:33;;;;;;;7.25;3.45;;;;;;;14.38;100.00;98818.97;4969058;28;20602;-60
2022/10/25 08:15:58;;;;;;;7.90;3.83;;;;;;;14.41;100.00;98823.91;4973898;28;20404;-60
2022/10/25 08:18:23;;;;;;;8.98;4.22;;;;;;;14.33;100.00;98811.63;4981942;28;20478;-60
2022/10/25 08:20:49;;;;;;;6.65;3.00;;;;;;;14.37;100.00;98812.13;4965044;28;20070;-59
2022/10/25 08:23:14;;;;;;;8.05;3.25;;;;;;;14.49;100.00;98820.44;4977352;28;20065;-60
2022/10/25 08:25:40;;;;;;;6.75;2.72;;;;;;;14.40;100.00;98820.47;4980915;28;20038;-60
2022/10/25 08:28:05;;;;;;;5.40;2.20;;;;;;;14.45;100.00;98825.19;4975509;28;20122;-60
2022/10/25 08:30:31;;;;;;;6.90;2.90;;;;;;;14.53;100.00;98825.19;4973867;28;20038;-60
2022/10/25 08:32:56;;;;;;;6.40;2.70;;;;;;;14.38;100.00;98819.81;4971930;28;20043;-60
2022/10/25 08:35:23;;;;;;;5.30;2.58;;;;;;;14.46;100.00;98821.59;4981450;28;20035;-60
2022/10/25 08:37:48;;;;;;;7.38;2.60;;;;;;;14.54;100.00;98815.53;4975502;28;20372;-60
2022/10/25 08:40:32;;;;;;;6.03;2.70;;;;;;;14.48;100.00;98810.97;4958380;28;20066;-59
2022/10/25 08:43:07;;;;;;;7.15;2.80;;;;;;;14.61;100.00;98824.41;4974969;28;20030;-59
2022/10/25 08:45:46;;;;;;;5.57;2.20;;;;;;;14.66;100.00;98824.72;4984296;28;20647;-60
2022/10/25 08:48:13;;;;;;;;;;;;;;;14.66;100.00;98829.13;4984661;28;20041;-60
2022/10/25 08:50:44;;;;;;;7.63;2.60;;;;;;;14.58;100.00;98809.03;4974661;28;19979;-60
2022/10/25 08:53:22;;;;;;;8.07;2.55;;;;;;;14.76;100.00;98833.19;4978727;28;20109;-59
2022/10/25 08:55:48;;;;;;;5.78;2.50;;;;;;;14.74;100.00;98837.78;4963236;28;20461;-59
2022/10/25 08:58:19;;;;;;;6.65;3.10;;;;;;;14.79;100.00;98838.13;4972654;28;20110;-59
2022/10/25 09:00:46;;;;;;;11.13;3.13;;;;;;;14.79;100.00;98850.41;4970565;28;20042;-60
2022/10/25 09:03:14;;;;;;;5.90;2.53;;;;;;;14.90;100.00;98844.00;4975649;28;20049;-60
2022/10/25 09:05:53;;;;;;;8.35;2.90;;;;;;;14.87;100.00;98836.47;4978240;28;20026;-60
2022/10/25 09:08:40;;;;;;;7.57;3.55;;;;;;;14.94;100.00;98840.88;4967808;28;20031;-60
2022/10/25 09:11:18;;;;;;;9.48;3.33;;;;;;;14.99;100.00;98841.19;4976347;28;20405;-59
2022/10/25 09:14:00;;;;;;;5.63;2.65;;;;;;;14.99;100.00;98835.94;4975351;28;20033;-59
2022/10/25 09:16:35;;;;;;;5.03;2.25;;;;;;;14.96;100.00;98822.38;5009150;28;20046;-59
2022/10/25 09:19:01;;;;;;;6.03;2.10;;;;;;;15.10;100.00;98844.44;4977196;28;20686;-59
2022/10/25 09:21:31;;;;;;;7.07;2.65;;;;;;;15.12;100.00;98838.03;4976132;28;20035;-59
2022/10/25 09:24:38;;;;;;;5.90;2.20;;;;;;;15.13;100.00;98833.63;4976803;28;20034;-59
2022/10/25 09:27:10;;;;;;;7.22;2.40;;;;;;;15.22;100.00;98834.41;4981152;28;20042;-59
2022/10/25 09:29:38;;;;;;;7.22;2.20;;;;;;;15.17;100.00;98827.06;4973611;28;20029;-60
2022/10/25 09:32:14;;;;;;;8.40;2.75;;;;;;;15.32;100.00;98846.31;4981210;28;20059;-59
2022/10/25 09:34:40;;;;;;;6.72;2.40;;;;;;;15.32;100.00;98843.72;4974681;28;20065;-59
2022/10/25 09:37:19;;;;;;;8.05;2.55;;;;;;;15.44;100.00;98849.41;4957614;28;20502;-59
2022/10/25 09:39:51;;;;;;;6.55;2.33;;;;;;;15.44;100.00;98849.41;4967594;28;20647;-59
2022/10/25 09:42:24;;;;;;;7.90;2.90;;;;;;;15.40;100.00;98852.53;4974808;28;20022;-59
2022/10/25 09:45:04;;;;;;;6.88;2.58;;;;;;;15.54;100.00;98855.25;4973155;28;20117;-59
2022/10/25 09:48:04;;;;;;;6.65;2.08;;;;;;;15.55;100.00;98853.44;4969876;28;20070;-59
2022/10/25 09:50:38;;;;;;;5.93;2.40;;;;;;;15.61;100.00;98858.00;4970157;28;20039;-61
2022/10/25 09:53:15;;;;;;;5.97;2.38;;;;;;;15.63;100.00;98847.34;4953974;28;20022;-59
2022/10/25 09:55:51;;;;;;;5.32;2.13;;;;;;;15.67;100.00;98853.88;4971123;28;20034;-58
2022/10/25 09:58:22;;;;;;;9.48;2.22;;;;;;;15.71;100.00;98853.34;4982598;28;20022;-59
2022/10/25 10:00:49;;;;;;;6.68;2.03;;;;;;;15.72;100.00;98857.63;4964835;28;20066;-59
2022/10/25 10:03:15;;;;;;;8.02;1.95;;;;;;;15.77;100.00;98859.78;4967188;28;20033;-58
2022/10/25 10:05:48;;;;;;;5.32;1.80;;;;;;;15.61;100.00;98821.31;4971328;28;20026;-58
2022/10/25 10:08:14;;;;;;;5.43;1.92;;;;;;;15.83;100.00;98866.13;4954446;28;20060;-59
2022/10/25 10:10:39;;;;;;;5.93;2.08;;;;;;;15.90;100.00;98860.03;4983269;28;21793;-59
2022/10/25 10:13:45;;;;;;;6.13;1.80;;;;;;;16.01;100.00;98852.72;4965605;28;20811;-59
2022/10/25 10:16:17;;;;;;;4.38;1.70;;;;;;;16.02;100.00;98854.38;4967290;28;20042;-61
2022/10/25 10:18:43;;;;;;;6.43;2.38;;;;;;;16.12;100.00;98849.72;4955275;28;20015;-59
2022/10/25 10:21:09;;;;;;;7.70;2.30;;;;;;;16.02;100.00;98825.53;4944962;28;20129;-59
2022/10/25 10:23:36;;;;;;;4.93;1.63;;;;;;;16.24;100.00;98852.75;4972087;28;20295;-59
2022/10/25 10:26:09;;;;;;;5.15;1.80;;;;;;;16.03;100.00;98821.94;4986810;28;20057;-57
2022/10/25 10:28:35;;;;;;;7.03;1.83;;;;;;;16.24;100.00;98848.31;4986864;28;20041;-60
2022/10/25 10:31:03;;;;;;;5.43;1.45;;;;;;;16.24;100.00;98850.13;4968103;28;20027;-60
2022/10/25 10:33:31;;;;;;;5.35;1.65;;;;;;;16.14;100.00;98827.56;4969782;28;20034;-60
2022/10/25 10:36:26;;;;;;;5.50;1.50;;;;;;;16.34;100.00;98853.34;4968438;28;20065;-60
2022/10/25 10:38:52;;;;;;;7.88;2.08;;;;;;;16.42;100.00;98850.63;4967481;28;20645;-60
2022/10/25 10:41:24;;;;;;;4.90;1.70;;;;;;;16.43;100.00;98856.72;4942273;28;20583;-60
2022/10/25 10:43:51;;;;;;;7.05;1.92;;;;;;;16.43;100.00;98835.72;4988398;28;20056;-60
2022/10/25 10:46:18;;;;;;;4.60;1.48;;;;;;;16.51;100.00;98846.13;4957089;28;20037;-61
2022/10/25 10:48:52;;;;;;;6.15;1.80;;;;;;;16.52;100.00;98843.34;4963467;28;20030;-60
2022/10/25 10:51:19;;;;;;;4.45;1.50;;;;;;;16.61;100.00;98843.25;4972267;28;20031;-60
2022/10/25 10:53:45;;;;;;;4.35;1.60;;;;;;;16.69;100.00;98849.25;4978751;28;20029;-59
2022/10/25 10:56:18;;;;;;;5.15;1.40;;;;;;;16.61;100.00;98815.22;4989858;28;20026;-59
2022/10/25 10:58:47;;;;;;;5.95;2.00;;;;;;;16.81;100.00;98843.56;4991252;28;20096;-59
2022/10/25 11:01:14;;;;;;;;;;;;;;;16.81;100.00;98846.19;4974807;28;20302;-60
2022/10/25 11:03:39;;;;;;;5.70;1.60;;;;;;;16.57;100.00;98802.63;4960898;28;19914;-60
2022/10/25 11:06:12;;;;;;;5.32;1.80;;;;;;;16.83;100.00;98829.31;4978762;28;20453;-59
2022/10/25 11:08:38;;;;;;;6.28;2.08;;;;;;;17.04;100.00;98833.84;4969353;28;20094;-60
2022/10/25 11:11:20;;;;;;;6.72;1.80;;;;;;;17.10;100.00;98838.38;4964962;28;20037;-60
2022/10/25 11:13:56;;;;;;;6.45;1.70;;;;;;;17.16;100.00;98831.59;4985941;28;20037;-59
2022/10/25 11:16:25;;;;;;;5.32;1.67;;;;;;;17.24;100.00;98834.09;4971938;28;20113;-59
2022/10/25 11:19:02;;;;;;;5.63;2.13;;;;;;;17.33;100.00;98828.78;4975057;28;20654;-60
2022/10/25 11:22:06;;;;;;;5.47;2.35;;;;;;;17.35;100.00;98832.03;4972330;28;20031;-59
2022/10/25 11:24:34;;;;;;;6.05;1.88;;;;;;;17.40;100.00;98825.22;4984090;28;20041;-60
2022/10/25 11:27:15;;;;;;;7.20;2.05;;;;;;;17.38;100.00;98818.53;4979969;28;20516;-60
2022/10/25 11:30:13;;;;;;;7.20;2.05;;;;;;;17.37;100.00;98815.06;4969891;28;20125;-60
2022/10/25 11:33:01;;;;;;;7.07;2.10;;;;;;;17.37;100.00;98817.69;4973765;28;20014;-59
2022/10/25 11:35:58;;;;;;;5.40;1.90;;;;;;;17.42;100.00;98817.16;4977218;28;20201;-59
2022/10/25 11:38:38;;;;;;;7.53;2.97;;;;;;;17.64;100.00;98815.38;4982549;28;20813;-60